Time;durP1;ratioP1;P1;durP2;ratioP2;P2;SDS_P1;SDS_P2;PMS_P1;PMS_P2;Temp;Humidity;BMP_temperature;BMP_pressure;BME280_temperature;BME280_humidity;BME280_pressure;Samples;Min_cycle;Max_cycle;Signal;HPM_P1;HPM_P2
2022/12/29 00:01:23;;;;;;;7.82;4.80;;;10.20;99.90;;;;;;5055505;28;20040;-78
2022/12/29 00:03:49;;;;;;;9.18;5.13;;;10.80;99.90;;;;;;5073731;28;20045;-79
2022/12/29 00:06:14;;;;;;;6.03;4.63;;;10.60;99.90;;;;;;5051134;28;20504;-77
2022/12/29 00:08:40;;;;;;;6.85;4.70;;;11.00;99.90;;;;;;5070565;28;20048;-78
2022/12/29 00:11:15;;;;;;;6.88;4.65;;;10.40;99.90;;;;;;5072603;28;20499;-78
2022/12/29 00:16:26;;;;;;;7.50;4.30;;;10.50;99.90;;;;;;5070542;28;20686;-78
2022/12/29 00:18:51;;;;;;;7.05;4.90;;;10.30;99.90;;;;;;5072478;28;20036;-77
2022/12/29 00:35:12;;;;;;;7.75;4.90;;;11.00;99.90;;;;;;5072224;28;20504;-78
2022/12/29 00:45:59;;;;;;;6.75;4.28;;;10.90;99.90;;;;;;5069905;28;20036;-77
2022/12/29 00:51:08;;;;;;;6.50;4.25;;;10.30;99.90;;;;;;5071394;28;20044;-78
2022/12/29 00:53:34;;;;;;;5.53;4.03;;;10.80;99.90;;;;;;5072968;28;20407;-77
2022/12/29 00:56:00;;;;;;;7.25;4.30;;;10.40;99.90;;;;;;5070979;28;20039;-78
2022/12/29 00:58:30;;;;;;;5.63;4.05;;;11.00;99.90;;;;;;5036227;28;20048;-77
2022/12/29 01:01:07;;;;;;;5.18;3.60;;;10.40;99.90;;;;;;5037863;28;20041;-77
2022/12/29 01:03:34;;;;;;;6.93;3.90;;;11.00;99.90;;;;;;5048756;28;20573;-80
2022/12/29 01:06:05;;;;;;;5.85;3.80;;;11.20;99.90;;;;;;5054407;28;20033;-77
2022/12/29 01:08:31;;;;;;;6.03;4.10;;;10.70;99.90;;;;;;5035114;28;20440;-77
2022/12/29 01:11:01;;;;;;;6.80;3.80;;;11.20;99.90;;;;;;5070753;28;20082;-77
2022/12/29 01:13:26;;;;;;;4.68;3.53;;;10.50;99.90;;;;;;5069084;28;20047;-78
2022/12/29 01:15:53;;;;;;;5.63;3.47;;;10.90;99.90;;;;;;5049078;28;20492;-78
2022/12/29 01:18:19;;;;;;;7.78;3.97;;;11.40;99.90;;;;;;5037213;28;20403;-78
2022/12/29 01:20:45;;;;;;;5.68;3.55;;;10.60;99.90;;;;;;5028748;28;20476;-79
2022/12/29 01:23:10;;;;;;;5.15;3.40;;;11.00;99.90;;;;;;5052114;28;20049;-78
2022/12/29 01:25:36;;;;;;;7.05;3.65;;;10.60;99.90;;;;;;5067103;28;20473;-78
2022/12/29 01:28:02;;;;;;;5.82;3.58;;;11.30;99.90;;;;;;5051338;28;20503;-78
2022/12/29 01:30:27;;;;;;;5.47;3.25;;;10.60;99.90;;;;;;5072014;28;20138;-78
2022/12/29 01:32:53;;;;;;;5.40;3.63;;;11.10;99.90;;;;;;5045924;28;20028;-78
2022/12/29 01:35:18;;;;;;;5.55;3.72;;;11.00;99.90;;;;;;5052900;28;20093;-78
2022/12/29 01:37:44;;;;;;;4.80;3.13;;;11.40;99.90;;;;;;5037628;28;20035;-78
2022/12/29 01:40:10;;;;;;;5.20;3.25;;;10.90;99.90;;;;;;5053856;28;20115;-78
2022/12/29 01:42:36;;;;;;;7.10;3.80;;;10.60;99.90;;;;;;5051943;28;20064;-80
2022/12/29 01:45:13;;;;;;;5.22;3.30;;;11.30;99.90;;;;;;5053102;28;20072;-78
2022/12/29 01:47:50;;;;;;;5.30;3.63;;;10.70;99.90;;;;;;5053588;28;20094;-78
2022/12/29 01:50:22;;;;;;;7.22;3.30;;;10.70;99.90;;;;;;5054596;28;20048;-81
2022/12/29 01:52:56;;;;;;;5.30;3.45;;;11.10;99.90;;;;;;5052156;28;20401;-79
2022/12/29 01:55:22;;;;;;;6.30;3.65;;;11.10;99.90;;;;;;5070975;28;20395;-78
2022/12/29 01:57:52;;;;;;;4.60;2.80;;;10.70;99.90;;;;;;5052086;28;20040;-78
2022/12/29 02:00:18;;;;;;;4.88;3.00;;;11.40;99.90;;;;;;5053779;28;20399;-77
2022/12/29 02:02:53;;;;;;;5.97;3.00;;;10.70;99.90;;;;;;5053030;28;20492;-77
2022/12/29 02:05:48;;;;;;;6.45;3.20;;;10.60;99.90;;;;;;5037217;28;20362;-78
2022/12/29 02:08:14;;;;;;;6.25;2.92;;;10.70;99.90;;;;;;5029050;28;20102;-78
2022/12/29 02:10:41;;;;;;;5.43;3.22;;;10.90;99.90;;;;;;5082874;28;20037;-78
2022/12/29 02:13:07;;;;;;;6.43;2.80;;;11.30;99.90;;;;;;5053211;28;20043;-78
2022/12/29 02:15:59;;;;;;;3.42;2.63;;;11.20;99.90;;;;;;5036661;28;20041;-78
2022/12/29 02:18:48;;;;;;;4.35;3.05;;;10.80;99.90;;;;;;5052645;28;20040;-77
2022/12/29 02:21:55;;;;;;;5.05;2.88;;;10.70;99.90;;;;;;5070743;28;20036;-77
2022/12/29 02:24:50;;;;;;;5.22;2.85;;;10.70;99.90;;;;;;5043947;28;20417;-77
2022/12/29 02:27:33;;;;;;;7.35;3.10;;;10.70;99.90;;;;;;5012996;28;20419;-78
2022/12/29 02:30:05;;;;;;;5.18;2.83;;;10.60;99.90;;;;;;5070868;28;20403;-79
2022/12/29 02:32:57;;;;;;;4.63;2.90;;;10.60;99.90;;;;;;5053023;28;20048;-77
2022/12/29 02:35:25;;;;;;;3.92;2.40;;;10.90;99.90;;;;;;5052763;28;20040;-77
2022/12/29 02:38:26;;;;;;;3.85;2.38;;;10.60;99.90;;;;;;5051086;28;20036;-78
2022/12/29 02:41:08;;;;;;;6.15;2.40;;;10.50;99.90;;;;;;5070461;28;20062;-77
2022/12/29 02:43:37;;;;;;;6.05;2.90;;;10.50;99.90;;;;;;5053325;28;20087;-77
2022/12/29 02:46:18;;;;;;;6.53;2.47;;;11.10;99.90;;;;;;5047535;28;20041;-77
2022/12/29 02:49:07;;;;;;;4.55;2.33;;;10.50;99.90;;;;;;5055812;28;20083;-77
2022/12/29 02:51:46;;;;;;;3.25;2.42;;;10.50;99.90;;;;;;5070234;28;20036;-77
2022/12/29 02:56:56;;;;;;;6.10;2.47;;;10.50;99.90;;;;;;5064588;28;20452;-78
2022/12/29 02:59:23;;;;;;;3.63;2.30;;;10.50;99.90;;;;;;5068686;28;20040;-77
2022/12/29 03:02:27;;;;;;;3.40;2.25;;;11.20;99.90;;;;;;5077648;28;20079;-78
2022/12/29 03:05:30;;;;;;;5.30;2.20;;;10.40;99.90;;;;;;5066657;28;20047;-77
2022/12/29 03:08:33;;;;;;;4.38;2.03;;;10.40;99.90;;;;;;5083112;28;20513;-77
2022/12/29 03:11:05;;;;;;;2.67;1.80;;;10.40;99.90;;;;;;5068277;28;20076;-77
2022/12/29 03:16:56;;;;;;;3.95;2.00;;;10.40;99.90;;;;;;5069542;28;20047;-79
2022/12/29 03:19:30;;;;;;;6.32;1.92;;;10.30;99.90;;;;;;5067071;28;20051;-77
2022/12/29 03:25:01;;;;;;;1.90;1.60;;;11.20;99.90;;;;;;5072615;28;20504;-80
2022/12/29 03:27:42;;;;;;;4.30;1.98;;;10.30;99.90;;;;;;5075471;28;20093;-77
2022/12/29 03:30:08;;;;;;;2.45;1.77;;;10.40;99.90;;;;;;5072828;28;20036;-78
2022/12/29 03:32:54;;;;;;;2.63;1.85;;;10.40;99.90;;;;;;5068924;28;20098;-77
2022/12/29 03:35:23;;;;;;;6.22;1.75;;;10.40;99.90;;;;;;5070858;28;20101;-77
2022/12/29 03:38:02;;;;;;;4.38;1.95;;;11.10;99.90;;;;;;5073224;28;20049;-78
2022/12/29 03:40:29;;;;;;;5.32;1.80;;;10.70;99.90;;;;;;5072810;28;20048;-78
2022/12/29 03:42:56;;;;;;;6.25;2.10;;;11.20;99.90;;;;;;5073408;28;20056;-79
2022/12/29 03:45:22;;;;;;;5.43;1.90;;;10.40;99.90;;;;;;5073755;28;20369;-77
2022/12/29 03:47:47;;;;;;;6.22;1.75;;;10.50;99.90;;;;;;5070189;28;20036;-80
2022/12/29 03:50:13;;;;;;;4.50;1.80;;;10.60;99.90;;;;;;5054786;28;20033;-77
2022/12/29 03:52:39;;;;;;;4.63;1.90;;;10.60;99.90;;;;;;5071331;28;20387;-78
2022/12/29 03:55:05;;;;;;;7.47;1.80;;;11.00;99.90;;;;;;5063036;22;20514;-63
2022/12/29 03:57:31;;;;;;;5.07;1.80;;;10.60;99.90;;;;;;5013884;28;20368;-64
2022/12/29 03:59:56;;;;;;;7.57;1.65;;;10.60;99.90;;;;;;5018179;28;20103;-65
2022/12/29 04:02:23;;;;;;;5.45;2.13;;;10.50;99.90;;;;;;5003283;28;20034;-64
2022/12/29 04:04:49;;;;;;;6.38;1.98;;;10.50;99.90;;;;;;5022973;28;20052;-63
2022/12/29 04:07:15;;;;;;;4.20;1.65;;;10.50;99.90;;;;;;5014509;28;20041;-63
2022/12/29 04:09:40;;;;;;;7.50;1.83;;;10.50;99.90;;;;;;5014788;28;20045;-64
2022/12/29 04:12:06;;;;;;;3.15;1.27;;;10.40;99.90;;;;;;5015165;28;20061;-68
2022/12/29 04:14:32;;;;;;;4.57;1.50;;;10.40;99.90;;;;;;5032436;28;20038;-64
2022/12/29 04:16:57;;;;;;;7.68;1.58;;;10.40;99.90;;;;;;5032617;28;20046;-64
2022/12/29 04:19:23;;;;;;;4.93;1.60;;;10.50;99.90;;;;;;5015149;28;20041;-63
2022/12/29 04:21:48;;;;;;;8.27;1.42;;;10.70;99.90;;;;;;5032008;28;20037;-66
2022/12/29 04:24:14;;;;;;;4.97;1.15;;;10.50;99.90;;;;;;5013949;28;20045;-63
2022/12/29 04:26:40;;;;;;;3.47;1.40;;;10.50;99.90;;;;;;5014710;28;20055;-63
2022/12/29 04:29:05;;;;;;;4.80;1.20;;;10.50;99.90;;;;;;5032813;28;20112;-63
2022/12/29 04:31:31;;;;;;;4.68;1.30;;;10.50;99.90;;;;;;5015020;28;20052;-64
2022/12/29 04:33:57;;;;;;;5.95;1.33;;;10.40;99.90;;;;;;5028105;28;20069;-65
2022/12/29 04:36:23;;;;;;;4.70;1.40;;;10.50;99.90;;;;;;5032335;28;20041;-63
2022/12/29 04:38:48;;;;;;;4.43;1.20;;;10.40;99.90;;;;;;5031254;28;20408;-67
2022/12/29 04:41:14;;;;;;;5.65;1.40;;;10.30;99.90;;;;;;5027959;28;20041;-63
2022/12/29 04:43:40;;;;;;;7.32;1.70;;;10.30;99.90;;;;;;5031960;28;20037;-63
2022/12/29 04:46:06;;;;;;;9.80;1.60;;;10.40;99.90;;;;;;5012655;28;20049;-63
2022/12/29 04:48:31;;;;;;;9.35;1.88;;;10.40;99.90;;;;;;5024619;28;20044;-65
2022/12/29 04:50:57;;;;;;;6.60;1.52;;;10.30;99.90;;;;;;5023332;28;20037;-67
2022/12/29 04:53:23;;;;;;;6.95;1.52;;;10.30;99.90;;;;;;5027097;28;20384;-63
2022/12/29 04:55:52;;;;;;;6.18;1.50;;;10.40;99.90;;;;;;5031511;28;20037;-62
2022/12/29 04:58:19;;;;;;;7.38;1.10;;;10.40;99.90;;;;;;5012701;28;20048;-63
2022/12/29 05:00:45;;;;;;;4.93;1.58;;;10.40;99.90;;;;;;5013850;28;20045;-63
2022/12/29 05:03:11;;;;;;;8.93;1.50;;;10.40;99.90;;;;;;5031653;28;20088;-63
2022/12/29 05:05:36;;;;;;;4.80;1.38;;;10.30;99.90;;;;;;5012884;28;20041;-63
2022/12/29 05:08:02;;;;;;;6.22;1.45;;;10.30;99.90;;;;;;5030285;28;20068;-63
2022/12/29 05:10:28;;;;;;;9.02;1.40;;;10.30;99.90;;;;;;5031502;28;20029;-65
2022/12/29 05:12:53;;;;;;;6.90;1.30;;;10.30;99.90;;;;;;5013196;28;20049;-63
2022/12/29 05:15:19;;;;;;;4.00;1.25;;;10.30;99.90;;;;;;5029875;28;20574;-62
2022/12/29 05:17:44;;;;;;;5.10;1.50;;;10.30;99.90;;;;;;5008761;28;20038;-64
2022/12/29 05:20:10;;;;;;;6.00;1.60;;;10.30;99.90;;;;;;5013185;28;20106;-64
2022/12/29 05:22:36;;;;;;;6.80;1.50;;;10.30;99.90;;;;;;5031503;28;20041;-64
2022/12/29 05:25:02;;;;;;;7.72;1.50;;;10.30;99.90;;;;;;5030285;28;20393;-67
2022/12/29 05:27:28;;;;;;;5.38;1.50;;;10.30;99.90;;;;;;5013829;28;20045;-67
2022/12/29 05:29:54;;;;;;;6.18;1.55;;;10.30;99.90;;;;;;5030544;28;20093;-63
2022/12/29 05:32:19;;;;;;;5.60;1.80;;;10.30;99.90;;;;;;5011031;28;20037;-63
2022/12/29 05:34:45;;;;;;;7.10;2.40;;;10.30;99.90;;;;;;5010648;28;20037;-62
2022/12/29 05:37:10;;;;;;;4.45;1.73;;;10.30;99.90;;;;;;5030289;28;20065;-64
2022/12/29 05:39:36;;;;;;;5.03;1.60;;;10.20;99.90;;;;;;5027216;28;20476;-62
2022/12/29 05:42:02;;;;;;;7.03;1.65;;;10.30;99.90;;;;;;5012818;28;20060;-63
2022/12/29 05:44:27;;;;;;;6.72;1.73;;;10.30;99.90;;;;;;5030500;28;20128;-63
2022/12/29 05:46:53;;;;;;;6.60;2.05;;;10.30;99.90;;;;;;5029972;28;20052;-65
2022/12/29 05:49:19;;;;;;;5.40;1.90;;;10.40;99.90;;;;;;5028487;28;20068;-66
2022/12/29 05:51:45;;;;;;;7.40;1.70;;;10.40;99.90;;;;;;5030433;28;20029;-66
2022/12/29 05:54:12;;;;;;;8.00;1.65;;;10.40;99.90;;;;;;5029961;28;20052;-63
2022/12/29 05:56:37;;;;;;;4.60;1.30;;;10.30;99.90;;;;;;5012276;28;20061;-63
2022/12/29 05:59:03;;;;;;;8.73;1.92;;;10.40;99.90;;;;;;5030359;28;20120;-66
2022/12/29 06:01:28;;;;;;;9.18;2.05;;;10.30;99.90;;;;;;5030612;28;20616;-64
2022/12/29 06:03:54;;;;;;;7.00;1.38;;;10.30;99.90;;;;;;5029514;28;20042;-63
2022/12/29 06:06:20;;;;;;;6.78;1.42;;;10.20;99.90;;;;;;5010264;28;20080;-63
2022/12/29 06:08:45;;;;;;;7.68;1.67;;;10.30;99.90;;;;;;5030397;28;20043;-64
2022/12/29 06:11:11;;;;;;;6.28;1.33;;;10.20;99.90;;;;;;5030541;28;20045;-63
2022/12/29 06:13:37;;;;;;;7.82;1.58;;;10.20;99.90;;;;;;5012723;28;20041;-62
2022/12/29 06:16:03;;;;;;;7.03;1.85;;;10.10;99.90;;;;;;5029903;28;20045;-65
2022/12/29 06:18:28;;;;;;;11.38;1.65;;;10.10;99.90;;;;;;5012930;28;20053;-65
2022/12/29 06:20:54;;;;;;;7.28;1.38;;;10.20;99.90;;;;;;5030176;28;20071;-65
2022/12/29 06:23:20;;;;;;;5.50;1.25;;;10.10;99.90;;;;;;5010832;28;20088;-63
2022/12/29 06:25:48;;;;;;;7.45;1.48;;;10.10;99.90;;;;;;5011933;28;20041;-65
2022/12/29 06:28:13;;;;;;;10.80;1.73;;;10.10;99.90;;;;;;5012980;28;20049;-66
2022/12/29 06:30:39;;;;;;;12.00;1.55;;;10.20;99.90;;;;;;5029510;28;20494;-65
2022/12/29 06:33:05;;;;;;;5.30;1.45;;;10.20;99.90;;;;;;5029776;28;20123;-65
2022/12/29 06:35:31;;;;;;;5.43;1.60;;;10.20;99.90;;;;;;5011844;28;20090;-65
2022/12/29 06:37:56;;;;;;;4.95;1.63;;;10.20;99.90;;;;;;5029538;28;20498;-64
2022/12/29 06:40:25;;;;;;;9.90;1.90;;;10.10;99.90;;;;;;5028235;28;20179;-66
2022/12/29 06:42:50;;;;;;;6.40;1.60;;;10.10;99.90;;;;;;5029800;28;20045;-65
2022/12/29 06:45:16;;;;;;;9.13;2.03;;;10.20;99.90;;;;;;5028725;28;20049;-66
2022/12/29 06:47:42;;;;;;;8.20;1.70;;;10.10;99.90;;;;;;5011967;28;20740;-65
2022/12/29 06:50:08;;;;;;;5.65;1.67;;;10.10;99.90;;;;;;5011530;28;20069;-65
2022/12/29 06:52:33;;;;;;;4.60;1.48;;;10.10;99.90;;;;;;5029657;28;20782;-65
2022/12/29 06:54:59;;;;;;;10.32;2.00;;;10.10;99.90;;;;;;5027915;28;20033;-65
2022/12/29 06:57:26;;;;;;;5.07;1.50;;;10.00;99.90;;;;;;5002752;28;20034;-65
2022/12/29 06:59:52;;;;;;;12.23;2.28;;;10.00;99.90;;;;;;5025042;28;20041;-66
2022/12/29 07:02:21;;;;;;;8.55;1.60;;;10.10;99.90;;;;;;5019205;28;20036;-65
2022/12/29 07:04:46;;;;;;;11.65;1.92;;;10.10;99.90;;;;;;5004269;28;20095;-67
2022/12/29 07:07:12;;;;;;;11.43;2.22;;;10.10;99.90;;;;;;5002868;28;20041;-66
2022/12/29 07:09:37;;;;;;;9.77;2.13;;;10.10;99.90;;;;;;5018218;28;20103;-66
2022/12/29 07:12:03;;;;;;;11.25;2.15;;;10.00;99.90;;;;;;5027385;28;20119;-65
2022/12/29 07:14:29;;;;;;;11.57;2.10;;;10.00;99.90;;;;;;5023325;28;20061;-66
2022/12/29 07:16:54;;;;;;;8.38;2.20;;;10.00;99.90;;;;;;5011329;28;20049;-66
2022/12/29 07:19:20;;;;;;;8.50;2.30;;;10.10;99.90;;;;;;5022119;28;20041;-65
2022/12/29 07:21:46;;;;;;;11.27;1.90;;;10.00;99.90;;;;;;5026226;28;20030;-65
2022/12/29 07:24:11;;;;;;;9.00;1.90;;;10.00;99.90;;;;;;5024571;28;20041;-65
2022/12/29 07:26:37;;;;;;;10.02;1.80;;;9.90;99.90;;;;;;5006985;28;20298;-66
2022/12/29 07:29:04;;;;;;;8.43;1.65;;;9.90;99.90;;;;;;5027382;28;20041;-65
2022/12/29 07:31:30;;;;;;;7.75;1.70;;;9.90;99.90;;;;;;5007211;28;20104;-66
2022/12/29 07:33:56;;;;;;;8.60;2.10;;;9.90;99.90;;;;;;5021823;28;20072;-65
2022/12/29 07:36:21;;;;;;;13.95;2.22;;;9.90;99.90;;;;;;5006870;28;20073;-65
2022/12/29 07:38:47;;;;;;;11.23;2.92;;;9.90;99.90;;;;;;5010694;28;20087;-65
2022/12/29 07:41:12;;;;;;;11.38;2.28;;;9.90;99.90;;;;;;5007879;28;20041;-65
2022/12/29 07:43:38;;;;;;;11.10;2.10;;;9.90;99.90;;;;;;5021700;28;20151;-64
2022/12/29 07:46:04;;;;;;;9.48;1.60;;;9.90;99.90;;;;;;5007583;28;20792;-65
2022/12/29 07:48:29;;;;;;;10.55;1.85;;;9.90;99.90;;;;;;5024983;28;20479;-65
2022/12/29 07:50:55;;;;;;;9.50;1.80;;;9.90;99.90;;;;;;5024861;28;20034;-66
2022/12/29 07:53:21;;;;;;;9.55;1.90;;;9.90;99.90;;;;;;5028601;28;20041;-66
2022/12/29 07:55:46;;;;;;;10.60;2.10;;;10.20;99.90;;;;;;5028149;28;20042;-66
2022/12/29 07:58:12;;;;;;;10.38;2.00;;;9.90;99.90;;;;;;5027876;28;20650;-66
2022/12/29 08:00:38;;;;;;;13.43;2.08;;;9.90;99.90;;;;;;5011658;28;20499;-66
2022/12/29 08:03:04;;;;;;;16.90;2.00;;;9.90;99.90;;;;;;5027909;28;20037;-65
2022/12/29 08:05:31;;;;;;;10.30;2.40;;;10.00;99.90;;;;;;5009940;28;20044;-64
2022/12/29 08:07:57;;;;;;;13.70;2.30;;;10.00;99.90;;;;;;5008664;28;20042;-66
2022/12/29 08:10:23;;;;;;;13.35;2.67;;;9.90;99.90;;;;;;5031372;28;20535;-65
2022/12/29 08:12:49;;;;;;;13.02;2.33;;;9.90;99.90;;;;;;5031080;28;20060;-66
2022/12/29 08:15:15;;;;;;;12.00;3.15;;;9.90;99.90;;;;;;5027858;28;20034;-64
2022/12/29 08:17:41;;;;;;;12.35;2.42;;;9.90;99.90;;;;;;5019445;28;20041;-66
2022/12/29 08:20:07;;;;;;;9.90;2.30;;;9.90;99.90;;;;;;5028715;28;20041;-66
2022/12/29 08:22:33;;;;;;;12.90;2.97;;;9.90;99.90;;;;;;5006062;28;20500;-66
2022/12/29 08:24:58;;;;;;;13.35;2.30;;;9.90;99.90;;;;;;5010712;28;20049;-66
2022/12/29 08:27:25;;;;;;;13.45;2.35;;;9.90;99.90;;;;;;5031319;28;20116;-66
2022/12/29 08:29:50;;;;;;;12.70;2.17;;;9.90;99.90;;;;;;5014551;28;20041;-63
2022/12/29 08:32:16;;;;;;;13.15;2.72;;;9.90;99.90;;;;;;5014797;28;20491;-66
2022/12/29 08:34:42;;;;;;;14.48;2.30;;;9.80;99.90;;;;;;5015040;28;20072;-66
2022/12/29 08:37:08;;;;;;;10.75;2.30;;;9.90;99.90;;;;;;5014124;28;20100;-64
2022/12/29 08:39:34;;;;;;;12.52;2.55;;;9.80;99.90;;;;;;5013222;28;20033;-66
2022/12/29 08:41:59;;;;;;;9.40;1.85;;;9.90;99.90;;;;;;5031654;28;20044;-66
2022/12/29 08:44:25;;;;;;;12.60;1.90;;;10.00;99.90;;;;;;5015094;28;20045;-66
2022/12/29 08:46:51;;;;;;;12.68;2.13;;;9.90;99.90;;;;;;5014036;28;20045;-66
2022/12/29 08:49:16;;;;;;;12.32;2.20;;;9.90;99.90;;;;;;5026251;28;20045;-65
2022/12/29 08:51:42;;;;;;;9.02;2.30;;;9.90;99.90;;;;;;5032455;28;20061;-64
2022/12/29 08:54:08;;;;;;;12.38;2.35;;;10.00;99.90;;;;;;5028989;28;20045;-66
2022/12/29 08:56:33;;;;;;;10.55;1.90;;;9.90;99.90;;;;;;5031713;28;20550;-66
2022/12/29 08:58:59;;;;;;;10.32;2.10;;;9.90;99.90;;;;;;5030579;28;20037;-66
2022/12/29 09:01:25;;;;;;;11.88;2.05;;;9.90;99.90;;;;;;5032030;28;20061;-63
2022/12/29 09:03:50;;;;;;;10.10;2.45;;;9.90;99.90;;;;;;5032311;28;20035;-63
2022/12/29 09:06:17;;;;;;;14.57;2.20;;;9.90;99.90;;;;;;5030561;28;20129;-66
2022/12/29 09:08:43;;;;;;;11.50;2.38;;;9.90;99.90;;;;;;5027952;28;20045;-64
2022/12/29 09:11:11;;;;;;;13.57;1.92;;;9.90;99.90;;;;;;5023587;28;20069;-66
2022/12/29 09:13:37;;;;;;;13.45;2.50;;;9.80;99.90;;;;;;5031645;28;20026;-65
2022/12/29 09:16:03;;;;;;;10.95;2.35;;;9.80;99.90;;;;;;5027210;28;20064;-65
2022/12/29 09:18:29;;;;;;;10.73;1.83;;;9.80;99.90;;;;;;5027453;28;20041;-63
2022/12/29 09:21:01;;;;;;;19.20;2.45;;;9.70;99.90;;;;;;5031798;28;20041;-65
2022/12/29 09:23:27;;;;;;;12.85;2.22;;;9.70;99.90;;;;;;5054306;28;20399;-65
2022/12/29 09:25:53;;;;;;;7.70;1.80;;;9.70;99.90;;;;;;5030898;28;20041;-65
2022/12/29 09:28:20;;;;;;;9.68;2.40;;;9.70;99.90;;;;;;5030303;28;20041;-65
2022/12/29 09:30:45;;;;;;;10.10;2.75;;;9.60;99.90;;;;;;5031598;28;20063;-66
2022/12/29 09:33:11;;;;;;;6.57;2.08;;;9.60;99.90;;;;;;5030331;28;20479;-65
2022/12/29 09:35:37;;;;;;;9.52;2.72;;;9.60;99.90;;;;;;5029726;28;20033;-66
2022/12/29 09:38:02;;;;;;;8.73;1.92;;;9.50;99.90;;;;;;5031436;28;20108;-65
2022/12/29 09:40:33;;;;;;;9.73;2.38;;;9.50;99.90;;;;;;5028967;28;20040;-65
2022/12/29 09:43:17;;;;;;;12.57;2.22;;;9.60;99.90;;;;;;5031803;28;20029;-66
2022/12/29 09:45:57;;;;;;;9.55;2.20;;;9.50;99.90;;;;;;5029285;28;20043;-66
2022/12/29 09:48:30;;;;;;;8.88;2.22;;;9.50;99.90;;;;;;5040549;28;20103;-65
2022/12/29 09:51:00;;;;;;;11.60;1.95;;;9.50;99.90;;;;;;5027326;28;20128;-65
2022/12/29 09:53:31;;;;;;;9.18;2.30;;;9.50;99.90;;;;;;5030694;28;20034;-64
2022/12/29 09:56:01;;;;;;;9.63;2.60;;;9.50;99.90;;;;;;5089298;22;20044;-77
2022/12/29 09:59:40;;;;;;;9.15;2.53;;;9.50;99.90;;;;;;5057031;28;20036;-78
2022/12/29 10:03:04;;;;;;;10.55;1.95;;;9.50;99.90;;;;;;5074606;28;20031;-79
2022/12/29 10:06:20;;;;;;;13.63;2.20;;;9.60;99.90;;;;;;5063491;28;20565;-77
2022/12/29 10:09:37;;;;;;;10.43;2.10;;;9.60;99.90;;;;;;5039353;28;20503;-78
2022/12/29 10:12:20;;;;;;;10.60;1.95;;;9.60;99.90;;;;;;5055662;28;20114;-77
2022/12/29 10:15:09;;;;;;;11.60;2.28;;;9.70;99.90;;;;;;5057732;28;20047;-79
2022/12/29 10:18:09;;;;;;;13.57;2.30;;;9.70;99.90;;;;;;5061534;28;20518;-78
2022/12/29 10:20:52;;;;;;;9.35;2.20;;;9.70;99.90;;;;;;5054337;28;20082;-80
2022/12/29 10:23:37;;;;;;;9.23;2.00;;;9.60;99.90;;;;;;5050466;28;20036;-78
2022/12/29 10:26:08;;;;;;;8.88;1.85;;;9.60;99.90;;;;;;5047249;28;20444;-78
2022/12/29 10:29:03;;;;;;;9.27;2.22;;;9.60;99.90;;;;;;5044860;28;20504;-80
2022/12/29 10:32:15;;;;;;;9.32;2.03;;;9.70;99.90;;;;;;5051717;28;20036;-81
2022/12/29 10:34:55;;;;;;;10.48;2.85;;;9.70;99.90;;;;;;5046818;28;20499;-80
2022/12/29 10:37:59;;;;;;;8.88;2.17;;;9.70;99.90;;;;;;5058383;28;20052;-81
2022/12/29 10:40:49;;;;;;;8.73;2.13;;;9.70;99.90;;;;;;5063005;28;20503;-80
2022/12/29 10:43:56;;;;;;;13.23;2.40;;;9.70;99.90;;;;;;5084317;28;20071;-80
2022/12/29 10:46:32;;;;;;;9.45;2.00;;;9.70;99.90;;;;;;5074906;28;20040;-80
2022/12/29 10:49:01;;;;;;;8.13;2.17;;;9.80;99.90;;;;;;5071287;28;20491;-79
2022/12/29 10:51:43;;;;;;;7.68;1.83;;;9.80;99.90;;;;;;5053926;28;20516;-83
2022/12/29 10:54:23;;;;;;;9.75;2.05;;;9.70;99.90;;;;;;5058274;28;20043;-80
2022/12/29 10:57:05;;;;;;;11.85;1.90;;;9.70;99.90;;;;;;5057459;28;20032;-80
2022/12/29 10:59:51;;;;;;;7.07;1.90;;;9.70;99.90;;;;;;5066887;28;20067;-80
2022/12/29 11:03:03;;;;;;;7.72;1.80;;;10.00;99.90;;;;;;5036672;28;20173;-80
2022/12/29 11:05:37;;;;;;;8.63;2.22;;;9.70;99.90;;;;;;5049835;28;20044;-79
2022/12/29 11:08:59;;;;;;;10.27;1.98;;;10.40;99.90;;;;;;5054675;28;20047;-79
2022/12/29 11:11:32;;;;;;;8.63;2.10;;;9.60;99.90;;;;;;5051569;28;20037;-78
2022/12/29 11:14:03;;;;;;;10.43;2.13;;;9.60;99.90;;;;;;5052580;28;20043;-78
2022/12/29 11:16:34;;;;;;;6.63;1.90;;;9.60;99.90;;;;;;5056050;28;20040;-78
2022/12/29 11:19:01;;;;;;;7.72;1.85;;;9.70;99.90;;;;;;5047380;28;20441;-78
2022/12/29 11:21:30;;;;;;;11.77;2.60;;;9.60;99.90;;;;;;5053886;28;20033;-77
2022/12/29 11:24:01;;;;;;;9.27;2.47;;;10.00;99.90;;;;;;5051977;28;20071;-78
2022/12/29 11:26:28;;;;;;;11.77;2.38;;;9.60;99.90;;;;;;5054787;28;20123;-81
2022/12/29 11:29:15;;;;;;;6.38;2.25;;;10.10;99.90;;;;;;5048351;28;20111;-78
2022/12/29 11:31:45;;;;;;;12.60;2.50;;;9.60;99.90;;;;;;5057185;28;20051;-78
2022/12/29 11:34:20;;;;;;;9.93;2.42;;;9.50;99.90;;;;;;5037739;28;20110;-78
2022/12/29 11:36:47;;;;;;;15.57;2.75;;;9.70;99.90;;;;;;5058806;28;20037;-78
2022/12/29 11:39:33;;;;;;;13.88;2.50;;;9.50;99.90;;;;;;5072777;28;20043;-79
2022/12/29 11:42:00;;;;;;;10.65;2.28;;;10.30;99.90;;;;;;5058585;28;20090;-77
2022/12/29 11:44:26;;;;;;;12.85;2.92;;;10.20;99.90;;;;;;5063373;28;20039;-78
2022/12/29 11:46:53;;;;;;;17.52;2.90;;;9.90;99.90;;;;;;5067937;28;20353;-77
2022/12/29 11:49:24;;;;;;;12.50;2.60;;;10.00;99.90;;;;;;5091941;28;20110;-78
2022/12/29 11:51:54;;;;;;;12.65;3.03;;;10.60;99.90;;;;;;5068893;28;20032;-78
2022/12/29 11:54:26;;;;;;;13.27;2.65;;;9.80;99.90;;;;;;5048144;28;20036;-78
2022/12/29 11:56:52;;;;;;;7.43;2.28;;;9.90;99.90;;;;;;5058288;28;20051;-78
2022/12/29 11:59:29;;;;;;;13.52;2.65;;;10.60;99.90;;;;;;5075128;28;20046;-78
2022/12/29 12:01:57;;;;;;;15.82;2.80;;;10.00;99.90;;;;;;5095148;28;20040;-78
2022/12/29 12:04:33;;;;;;;18.38;2.63;;;10.00;99.90;;;;;;5057071;28;20119;-78
2022/12/29 12:07:18;;;;;;;17.65;3.22;;;10.90;99.90;;;;;;5074867;28;20112;-77
2022/12/29 12:09:50;;;;;;;16.58;2.78;;;10.10;99.90;;;;;;5057491;28;20123;-80
2022/12/29 12:12:30;;;;;;;;;;;10.20;99.90;;;;;;5044314;28;20518;-80
2022/12/29 12:15:01;;;;;;;15.05;3.13;;;10.00;99.90;;;;;;5057290;28;19973;-79
2022/12/29 12:17:39;;;;;;;15.60;3.17;;;10.00;99.90;;;;;;5068727;28;20428;-79
2022/12/29 12:20:21;;;;;;;9.05;2.25;;;9.90;99.90;;;;;;5058988;28;20046;-79
2022/12/29 12:23:01;;;;;;;15.27;1.50;;;9.80;99.90;;;;;;5051390;28;20036;-80
2022/12/29 12:25:48;;;;;;;9.93;1.58;;;9.60;99.90;;;;;;5069815;28;20040;-79
2022/12/29 12:28:37;;;;;;;7.82;1.92;;;10.00;99.90;;;;;;5054607;28;20050;-79
2022/12/29 12:31:15;;;;;;;10.23;2.28;;;9.50;99.90;;;;;;5075113;28;20390;-79
2022/12/29 12:33:50;;;;;;;18.02;3.28;;;9.70;99.90;;;;;;5074823;28;20071;-79
2022/12/29 12:36:49;;;;;;;16.85;2.92;;;10.20;99.90;;;;;;5072265;28;20033;-78
2022/12/29 12:39:35;;;;;;;13.52;3.28;;;10.10;99.90;;;;;;5048440;28;20381;-79
2022/12/29 12:42:27;;;;;;;15.80;2.67;;;10.10;99.90;;;;;;5056316;28;20093;-79
2022/12/29 12:45:16;;;;;;;19.38;4.25;;;10.00;99.90;;;;;;5055837;28;20048;-78
2022/12/29 12:48:18;;;;;;;18.30;3.20;;;9.90;99.90;;;;;;5074362;28;20051;-78
2022/12/29 12:50:47;;;;;;;20.35;3.25;;;9.80;99.90;;;;;;5074910;28;20422;-78
2022/12/29 12:53:25;;;;;;;17.17;3.42;;;10.70;99.90;;;;;;5041574;28;20135;-79
2022/12/29 12:56:15;;;;;;;18.70;3.33;;;9.90;99.90;;;;;;5063523;28;20028;-80
2022/12/29 12:59:17;;;;;;;21.65;3.47;;;9.90;99.90;;;;;;5046420;28;20036;-80
2022/12/29 13:02:21;;;;;;;19.08;3.25;;;9.80;99.90;;;;;;5091337;28;20028;-78
2022/12/29 13:05:34;;;;;;;15.32;2.90;;;9.80;99.90;;;;;;5076240;28;20052;-78
2022/12/29 13:08:30;;;;;;;20.00;3.45;;;9.70;99.90;;;;;;4979060;28;20089;-78
2022/12/29 13:11:08;;;;;;;13.32;3.22;;;9.70;99.90;;;;;;4994802;28;20037;-78
2022/12/29 13:14:02;;;;;;;18.70;3.33;;;9.60;99.90;;;;;;5054588;28;20051;-78
2022/12/29 13:16:46;;;;;;;15.80;3.28;;;9.60;99.90;;;;;;5055627;28;20485;-78
2022/12/29 13:19:36;;;;;;;10.95;2.65;;;9.70;99.90;;;;;;5067844;28;20587;-78
2022/12/29 13:22:29;;;;;;;15.35;2.58;;;10.60;99.90;;;;;;5055775;28;20032;-80
2022/12/29 13:25:13;;;;;;;14.77;2.65;;;10.20;99.90;;;;;;5050342;28;20108;-78
2022/12/29 13:27:54;;;;;;;16.83;3.20;;;10.00;99.90;;;;;;5095823;28;20055;-78
2022/12/29 13:30:46;;;;;;;13.27;2.42;;;9.90;99.90;;;;;;5052529;28;20082;-78
2022/12/29 13:33:20;;;;;;;13.10;2.83;;;9.80;99.90;;;;;;5074602;28;20044;-80
2022/12/29 13:35:49;;;;;;;21.23;3.72;;;9.70;99.90;;;;;;5040551;28;20511;-78
2022/12/29 13:38:25;;;;;;;17.25;3.30;;;9.70;99.90;;;;;;5060559;28;20043;-78
2022/12/29 13:40:57;;;;;;;14.93;3.10;;;9.60;99.90;;;;;;5045374;28;20037;-78
2022/12/29 13:43:24;;;;;;;16.17;2.95;;;9.60;99.90;;;;;;5052139;28;20036;-78
2022/12/29 13:45:59;;;;;;;12.93;2.90;;;10.00;99.90;;;;;;5043491;28;20101;-80
2022/12/29 13:48:38;;;;;;;12.27;2.50;;;9.60;99.90;;;;;;5052104;28;20472;-80
2022/12/29 13:51:05;;;;;;;13.32;3.10;;;9.50;99.90;;;;;;5053988;28;20040;-78
2022/12/29 13:53:55;;;;;;;21.05;3.25;;;9.50;99.90;;;;;;5068063;28;20045;-81